createdAt,value
2023-05-23T00:00:14.329Z,18.31
2023-05-23T00:02:45.764Z,18.38
2023-05-23T00:05:15.675Z,18.42
2023-05-23T00:07:45.246Z,18.39
2023-05-23T00:10:17.306Z,18.35
2023-05-23T00:12:48.398Z,18.43
2023-05-23T00:15:17.941Z,18.50
2023-05-23T00:17:47.804Z,18.42
2023-05-23T00:20:17.663Z,18.43
2023-05-23T00:22:48.478Z,18.36
2023-05-23T00:25:22.168Z,18.37
2023-05-23T00:27:51.720Z,18.31
2023-05-23T00:30:21.523Z,18.27
2023-05-23T00:32:52.880Z,18.26
2023-05-23T00:35:23.795Z,18.26
2023-05-23T00:37:54.363Z,18.32
2023-05-23T00:40:26.773Z,18.20
2023-05-23T00:42:56.456Z,18.14
2023-05-23T00:45:26.453Z,18.25
2023-05-23T00:47:57.012Z,18.14
2023-05-23T00:50:29.956Z,18.12
2023-05-23T00:53:01.725Z,18.08
2023-05-23T00:55:34.332Z,18.06
2023-05-23T00:58:03.904Z,18.07
2023-05-23T01:00:34.288Z,18.11
2023-05-23T01:03:05.216Z,18.11
2023-05-23T01:05:34.754Z,18.03
2023-05-23T01:08:04.278Z,18.11
2023-05-23T01:10:36.485Z,18.04
2023-05-23T01:13:16.671Z,17.98
2023-05-23T01:15:54.176Z,17.89
2023-05-23T01:18:30.675Z,17.82
2023-05-23T01:21:09.339Z,17.78
2023-05-23T01:24:02.601Z,17.61
2023-05-23T01:26:49.384Z,17.68
2023-05-23T01:29:27.494Z,17.69
2023-05-23T01:32:00.501Z,17.49
2023-05-23T01:34:31.803Z,17.25
2023-05-23T01:37:01.786Z,17.37
2023-05-23T01:39:31.349Z,17.44
2023-05-23T01:42:02.172Z,17.39
2023-05-23T01:44:35.424Z,17.27
2023-05-23T01:47:06.624Z,17.25
2023-05-23T01:49:37.668Z,17.24
2023-05-23T01:52:10.448Z,17.39
2023-05-23T01:54:43.864Z,17.11
2023-05-23T01:57:13.859Z,17.13
2023-05-23T01:59:46.009Z,17.01
2023-05-23T02:02:15.762Z,17.21
2023-05-23T02:04:45.500Z,17.21
2023-05-23T02:07:15.008Z,17.15
2023-05-23T02:09:44.500Z,17.37
2023-05-23T02:12:15.886Z,17.29
2023-05-23T02:14:48.026Z,17.07
2023-05-23T02:17:18.419Z,17.03
2023-05-23T02:19:48.572Z,17.03
2023-05-23T02:22:18.404Z,16.98
2023-05-23T02:24:47.897Z,17.29
2023-05-23T02:27:17.445Z,17.03
2023-05-23T02:29:49.624Z,16.82
2023-05-23T02:32:19.203Z,16.71
2023-05-23T02:34:50.585Z,16.62
2023-05-23T02:37:20.142Z,16.80
2023-05-23T02:39:51.008Z,16.74
2023-05-23T02:42:20.666Z,16.57
2023-05-23T02:44:52.938Z,16.43
2023-05-23T02:47:22.477Z,16.48
2023-05-23T02:49:51.972Z,16.63
2023-05-23T02:52:22.080Z,16.58
2023-05-23T02:54:51.617Z,16.55
2023-05-23T02:57:21.124Z,16.45
2023-05-23T02:59:53.270Z,16.55
2023-05-23T03:02:22.865Z,16.64
2023-05-23T03:04:52.600Z,16.60
2023-05-23T03:07:27.980Z,16.47
2023-05-23T03:09:58.756Z,16.50
2023-05-23T03:12:28.500Z,16.42
2023-05-23T03:15:00.985Z,16.19
2023-05-23T03:17:30.990Z,16.33
2023-05-23T03:20:00.675Z,16.20
2023-05-23T03:22:33.864Z,16.20
2023-05-23T03:25:05.936Z,16.28
2023-05-23T03:27:36.328Z,16.27
2023-05-23T03:30:10.153Z,16.18
2023-05-23T03:32:39.908Z,16.19
2023-05-23T03:35:11.302Z,16.08
2023-05-23T03:37:41.704Z,16.09
2023-05-23T03:40:12.537Z,16.18
2023-05-23T03:42:42.581Z,16.25
2023-05-23T03:45:16.181Z,16.08
2023-05-23T03:47:45.972Z,16.10
2023-05-23T03:50:15.671Z,16.17
2023-05-23T03:52:45.333Z,16.20
2023-05-23T03:55:14.955Z,16.08
2023-05-23T03:57:44.631Z,16.07
2023-05-23T04:00:18.983Z,16.22
2023-05-23T04:02:50.375Z,16.11
2023-05-23T04:05:21.883Z,16.14
2023-05-23T04:07:52.863Z,16.09
2023-05-23T04:10:22.614Z,16.09
2023-05-23T04:12:53.693Z,16.15
2023-05-23T04:15:26.116Z,16.06
2023-05-23T04:17:59.934Z,16.11
2023-05-23T04:20:30.033Z,16.15
2023-05-23T04:22:59.587Z,16.18
2023-05-23T04:25:29.731Z,16.16
2023-05-23T04:28:10.557Z,16.14
2023-05-23T04:30:42.832Z,16.22
2023-05-23T04:33:13.518Z,15.99
2023-05-23T04:35:44.033Z,16.15
2023-05-23T04:38:13.772Z,16.11
2023-05-23T04:40:43.449Z,16.20
2023-05-23T04:43:46.213Z,16.02
2023-05-23T04:46:27.562Z,16.18
2023-05-23T04:49:14.544Z,16.12
2023-05-23T04:51:44.042Z,15.97
2023-05-23T04:54:27.280Z,15.99
2023-05-23T04:56:58.048Z,15.98
2023-05-23T04:59:28.981Z,15.98
2023-05-23T05:02:01.372Z,15.99
2023-05-23T05:04:31.856Z,15.83
2023-05-23T05:07:03.748Z,15.98
2023-05-23T05:09:33.451Z,15.76
2023-05-23T05:12:03.388Z,15.98
2023-05-23T05:14:33.569Z,15.75
2023-05-23T05:17:05.819Z,15.91
2023-05-23T05:19:46.867Z,15.85
2023-05-23T05:22:16.406Z,15.87
2023-05-23T05:24:46.083Z,15.80
2023-05-23T05:27:15.613Z,15.86
2023-05-23T05:29:45.088Z,15.69
2023-05-23T05:32:17.171Z,15.63
2023-05-23T05:34:49.385Z,15.77
2023-05-23T05:37:20.213Z,15.89
2023-05-23T05:39:50.249Z,15.81
2023-05-23T05:42:19.913Z,15.83
2023-05-23T05:44:49.774Z,15.76
2023-05-23T05:47:22.243Z,15.77
2023-05-23T05:49:51.810Z,15.87
2023-05-23T05:52:21.301Z,15.95
2023-05-23T05:54:50.784Z,15.60
2023-05-23T05:57:20.815Z,15.75
2023-05-23T05:59:50.616Z,15.68
2023-05-23T06:02:22.749Z,15.76
2023-05-23T06:04:52.374Z,15.92
2023-05-23T06:07:21.900Z,15.82
2023-05-23T06:09:51.383Z,15.77
2023-05-23T06:12:20.973Z,15.77
2023-05-23T06:14:50.616Z,15.93
2023-05-23T06:17:23.095Z,15.92
2023-05-23T06:19:52.852Z,15.93
2023-05-23T06:22:22.853Z,15.91
2023-05-23T06:24:53.028Z,15.71
2023-05-23T06:27:22.545Z,15.77
2023-05-23T06:29:52.058Z,15.87
2023-05-23T06:32:24.160Z,15.56
2023-05-23T06:34:54.418Z,15.64
2023-05-23T06:37:23.913Z,15.74
2023-05-23T06:39:53.384Z,15.99
2023-05-23T06:42:23.075Z,15.90
2023-05-23T06:44:59.631Z,16.02
2023-05-23T06:47:31.808Z,15.92
2023-05-23T06:50:01.307Z,15.90
2023-05-23T06:52:30.781Z,15.79
2023-05-23T06:55:00.758Z,15.94
2023-05-23T06:57:30.294Z,15.91
2023-05-23T07:00:00.184Z,15.87
2023-05-23T07:02:35.151Z,15.83
2023-05-23T07:05:08.948Z,15.83
2023-05-23T07:07:50.446Z,15.85
2023-05-23T07:10:20.362Z,15.78
2023-05-23T07:12:51.331Z,15.96
2023-05-23T07:15:23.313Z,15.85
2023-05-23T07:18:03.506Z,15.98
2023-05-23T07:20:35.873Z,15.93
2023-05-23T07:23:13.826Z,15.96
2023-05-23T07:25:53.810Z,15.92
2023-05-23T07:28:32.286Z,15.84
2023-05-23T07:31:02.389Z,15.87
2023-05-23T07:33:35.365Z,15.88
2023-05-23T07:36:07.825Z,15.86
2023-05-23T07:38:37.409Z,15.69
2023-05-23T07:41:12.073Z,15.68
2023-05-23T07:43:43.769Z,15.70
2023-05-23T07:46:13.417Z,15.62
2023-05-23T07:48:45.594Z,15.55
2023-05-23T07:51:21.569Z,15.51
2023-05-23T07:53:52.478Z,15.67
2023-05-23T07:56:25.080Z,15.37
2023-05-23T07:58:54.689Z,15.51
2023-05-23T08:01:25.184Z,15.49
2023-05-23T08:04:23.676Z,15.36
2023-05-23T08:07:04.451Z,15.44
2023-05-23T08:09:44.815Z,15.34
2023-05-23T08:12:17.816Z,15.37
2023-05-23T08:14:51.653Z,15.42
2023-05-23T08:17:45.116Z,15.33
2023-05-23T08:20:17.679Z,15.10
2023-05-23T08:22:48.576Z,15.11
2023-05-23T08:25:18.504Z,15.24
2023-05-23T08:27:48.053Z,15.22
2023-05-23T08:30:34.586Z,15.00
2023-05-23T08:33:04.974Z,14.92
2023-05-23T08:35:38.132Z,14.92
2023-05-23T08:38:12.558Z,14.98
2023-05-23T08:40:54.263Z,14.93
2023-05-23T08:43:26.042Z,15.08
2023-05-23T08:45:57.451Z,14.91
2023-05-23T08:48:31.236Z,14.98
2023-05-23T08:51:05.393Z,15.01
2023-05-23T08:53:36.120Z,15.00
2023-05-23T08:56:09.139Z,14.95
2023-05-23T08:58:45.559Z,14.86
2023-05-23T09:01:18.570Z,14.86
2023-05-23T09:03:48.100Z,14.97
2023-05-23T09:06:35.087Z,14.67
2023-05-23T09:09:05.095Z,14.55
2023-05-23T09:11:36.444Z,14.68
2023-05-23T09:14:08.245Z,14.63
2023-05-23T09:16:38.293Z,14.65
2023-05-23T09:19:15.186Z,14.65
2023-05-23T09:21:56.773Z,14.64
2023-05-23T09:24:41.700Z,14.50
2023-05-23T09:27:12.699Z,14.34
2023-05-23T09:29:42.617Z,14.39
2023-05-23T09:32:16.336Z,14.61
2023-05-23T09:34:59.025Z,14.54
2023-05-23T09:37:35.940Z,14.48
2023-05-23T09:40:10.877Z,14.35
2023-05-23T09:42:46.127Z,14.19
2023-05-23T09:45:16.530Z,14.34
2023-05-23T09:47:52.530Z,14.19
2023-05-23T09:50:22.546Z,14.25
2023-05-23T09:52:54.739Z,14.13
2023-05-23T09:55:24.259Z,13.83
2023-05-23T09:57:57.338Z,13.74
2023-05-23T10:00:28.670Z,13.93
2023-05-23T10:03:04.800Z,13.93
2023-05-23T10:05:37.932Z,14.05
2023-05-23T10:08:16.798Z,14.08
2023-05-23T10:11:17.056Z,14.22
2023-05-23T10:13:47.898Z,14.11
2023-05-23T10:16:22.512Z,14.02
2023-05-23T10:18:58.599Z,14.02
2023-05-23T10:21:36.260Z,14.01
2023-05-23T10:24:10.827Z,13.97
2023-05-23T10:26:40.560Z,13.87
2023-05-23T10:29:10.532Z,13.92
2023-05-23T10:31:41.670Z,13.90
2023-05-23T10:34:19.959Z,13.79
2023-05-23T10:40:05.178Z,13.89
2023-05-23T10:42:45.501Z,13.78
2023-05-23T10:45:19.368Z,13.59
2023-05-23T10:47:50.508Z,13.63
2023-05-23T10:50:35.277Z,13.67
2023-05-23T10:53:06.045Z,13.80
2023-05-23T10:55:39.476Z,13.68
2023-05-23T10:58:19.860Z,13.59
2023-05-23T11:00:57.029Z,13.50
2023-05-23T11:03:38.258Z,13.39
2023-05-23T11:06:08.930Z,13.30
2023-05-23T11:11:18.442Z,13.48
2023-05-23T11:14:00.579Z,13.40
2023-05-23T11:16:31.491Z,13.39
2023-05-23T11:19:26.539Z,13.36
2023-05-23T11:21:57.647Z,13.47
2023-05-23T11:24:27.458Z,13.47
2023-05-23T11:27:04.262Z,13.36
2023-05-23T11:29:33.790Z,13.35
2023-05-23T11:32:03.509Z,13.25
2023-05-23T11:34:33.210Z,13.38
2023-05-23T11:37:02.923Z,13.23
2023-05-23T11:39:32.439Z,13.26
2023-05-23T11:42:05.816Z,13.25
2023-05-23T11:44:35.370Z,13.14
2023-05-23T11:47:06.901Z,13.27
2023-05-23T11:49:38.612Z,13.31
2023-05-23T11:52:09.941Z,13.21
2023-05-23T11:54:39.468Z,13.22
2023-05-23T11:57:11.710Z,13.24
2023-05-23T11:59:42.520Z,13.18
2023-05-23T12:02:12.095Z,13.15
2023-05-23T12:04:42.596Z,13.11
2023-05-23T12:07:12.171Z,13.27
2023-05-23T12:09:46.708Z,13.29
2023-05-23T12:12:20.816Z,13.35
2023-05-23T12:14:50.494Z,13.35
2023-05-23T12:17:20.662Z,13.43
2023-05-23T12:19:50.252Z,13.52
2023-05-23T12:22:26.269Z,13.62
2023-05-23T12:29:13.239Z,13.72
2023-05-23T12:31:43.159Z,13.68
2023-05-23T12:34:14.123Z,13.73
2023-05-23T12:36:49.360Z,13.69
2023-05-23T12:39:27.879Z,13.65
2023-05-23T12:41:58.620Z,13.74
2023-05-23T12:44:35.556Z,13.76
2023-05-23T12:47:05.764Z,13.69
2023-05-23T12:49:35.354Z,13.66
2023-05-23T12:52:04.921Z,13.66
2023-05-23T12:54:34.411Z,13.74
2023-05-23T12:57:03.935Z,13.87
2023-05-23T12:59:36.263Z,13.99
2023-05-23T13:02:06.074Z,14.17
2023-05-23T13:04:35.681Z,14.16
2023-05-23T13:07:05.185Z,14.14
2023-05-23T13:09:34.712Z,14.17
2023-05-23T13:12:04.530Z,14.19
2023-05-23T13:14:36.594Z,14.22
2023-05-23T13:17:06.258Z,14.21
2023-05-23T13:19:36.239Z,14.18
2023-05-23T13:22:06.112Z,14.26
2023-05-23T13:24:36.459Z,14.37
2023-05-23T13:27:06.072Z,14.33
2023-05-23T13:29:38.137Z,14.32
2023-05-23T13:32:08.099Z,14.34
2023-05-23T13:34:37.997Z,14.43
2023-05-23T13:37:08.361Z,14.49
2023-05-23T13:39:37.814Z,14.65
2023-05-23T13:42:08.100Z,14.80
2023-05-23T13:44:40.191Z,14.73
2023-05-23T13:47:13.799Z,14.74
2023-05-23T13:49:44.271Z,14.76
2023-05-23T13:52:14.547Z,14.75
2023-05-23T13:54:44.244Z,14.76
2023-05-23T13:57:13.711Z,14.87
2023-05-23T13:59:45.865Z,14.99
2023-05-23T14:02:15.593Z,14.97
2023-05-23T14:04:45.181Z,15.14
2023-05-23T14:07:14.648Z,15.19
2023-05-23T14:09:44.190Z,15.19
2023-05-23T14:12:14.004Z,15.26
2023-05-23T14:14:46.104Z,15.33
2023-05-23T14:17:18.344Z,15.49
2023-05-23T14:19:48.607Z,15.39
2023-05-23T14:22:18.367Z,15.32
2023-05-23T14:24:47.877Z,15.32
2023-05-23T14:27:18.632Z,15.32
2023-05-23T14:29:50.739Z,15.43
2023-05-23T14:32:20.423Z,15.61
2023-05-23T14:34:50.113Z,15.63
2023-05-23T14:37:19.571Z,15.54
2023-05-23T14:39:49.075Z,15.50
2023-05-23T14:42:18.692Z,15.39
2023-05-23T14:44:50.805Z,15.40
2023-05-23T14:47:20.326Z,15.33
2023-05-23T14:49:49.856Z,15.29
2023-05-23T14:52:20.231Z,15.27
2023-05-23T14:54:49.795Z,15.22
2023-05-23T14:57:19.288Z,15.11
2023-05-23T14:59:51.363Z,15.06
2023-05-23T15:02:20.891Z,14.97
2023-05-23T15:04:50.601Z,15.00
2023-05-23T15:07:20.419Z,15.03
2023-05-23T15:09:50.053Z,15.02
2023-05-23T15:12:19.535Z,15.04
2023-05-23T15:14:51.628Z,14.94
2023-05-23T15:17:25.761Z,14.97
2023-05-23T15:19:57.230Z,14.99
2023-05-23T15:25:00.958Z,15.13
2023-05-23T15:27:30.448Z,15.28
2023-05-23T15:30:02.599Z,15.40
2023-05-23T15:32:32.196Z,15.50
2023-05-23T15:35:01.729Z,15.63
2023-05-23T15:37:31.218Z,15.61
2023-05-23T15:40:00.797Z,15.57
2023-05-23T15:42:30.872Z,15.51
2023-05-23T15:45:02.932Z,15.40
2023-05-23T15:47:32.519Z,15.33
2023-05-23T15:50:02.135Z,15.24
2023-05-23T15:52:31.696Z,15.19
2023-05-23T15:55:02.052Z,15.12
2023-05-23T15:57:31.576Z,15.10
2023-05-23T16:00:05.684Z,15.01
2023-05-23T16:02:41.434Z,14.92
2023-05-23T16:05:11.219Z,14.92
2023-05-23T16:07:40.704Z,14.93
2023-05-23T16:10:11.328Z,14.90
2023-05-23T16:12:40.878Z,14.92
2023-05-23T16:15:13.692Z,15.02
2023-05-23T16:17:43.227Z,14.99
2023-05-23T16:20:13.594Z,15.02
2023-05-23T16:22:43.466Z,15.13
2023-05-23T16:25:13.529Z,15.20
2023-05-23T16:27:43.091Z,15.32
2023-05-23T16:30:15.779Z,15.32
2023-05-23T16:32:45.119Z,15.30
2023-05-23T16:35:15.785Z,15.22
2023-05-23T16:37:45.638Z,15.08
2023-05-23T16:40:16.704Z,15.09
2023-05-23T16:42:47.585Z,14.98
2023-05-23T16:45:19.914Z,14.97
2023-05-23T16:47:49.498Z,14.87
2023-05-23T16:50:19.219Z,14.96
2023-05-23T16:52:48.728Z,14.94
2023-05-23T16:55:18.359Z,14.83
2023-05-23T16:57:47.872Z,14.71
2023-05-23T17:00:20.708Z,14.76
2023-05-23T17:02:50.344Z,14.78
2023-05-23T17:05:19.872Z,14.63
2023-05-23T17:07:49.376Z,14.65
2023-05-23T17:10:20.498Z,14.71
2023-05-23T17:12:50.201Z,14.64
2023-05-23T17:15:22.306Z,14.69
2023-05-23T17:17:51.960Z,14.61
2023-05-23T17:20:24.123Z,14.65
2023-05-23T17:22:54.836Z,14.65
2023-05-23T17:25:24.803Z,14.64
2023-05-23T17:27:55.191Z,14.56
2023-05-23T17:30:28.448Z,14.54
2023-05-23T17:32:58.625Z,14.48
2023-05-23T17:35:28.377Z,14.40
2023-05-23T17:37:58.467Z,14.20
2023-05-23T17:40:28.188Z,14.31
2023-05-23T17:42:57.750Z,14.24
2023-05-23T17:45:29.859Z,14.18
2023-05-23T17:48:03.554Z,14.17
2023-05-23T17:50:33.387Z,14.18
2023-05-23T17:53:04.326Z,14.17
2023-05-23T17:55:33.988Z,14.14
2023-05-23T17:58:03.542Z,14.16
2023-05-23T18:00:36.225Z,14.07
2023-05-23T18:03:06.477Z,14.01
2023-05-23T18:05:36.113Z,14.08
2023-05-23T18:08:05.716Z,14.07
2023-05-23T18:10:35.248Z,14.05
2023-05-23T18:13:04.714Z,13.97
2023-05-23T18:15:36.773Z,13.99
2023-05-23T18:20:50.079Z,14.00
2023-05-23T18:23:19.762Z,13.85
2023-05-23T18:25:49.486Z,13.87
2023-05-23T18:28:18.944Z,13.83
2023-05-23T18:30:51.262Z,13.64
2023-05-23T18:33:20.967Z,13.73
2023-05-23T18:35:50.707Z,13.65
2023-05-23T18:38:20.336Z,13.67
2023-05-23T18:40:49.994Z,13.68
2023-05-23T18:43:19.547Z,13.45
2023-05-23T18:45:51.854Z,13.45
2023-05-23T18:48:21.818Z,13.48
2023-05-23T18:50:51.358Z,13.43
2023-05-23T18:53:21.119Z,13.38
2023-05-23T18:55:50.622Z,13.27
2023-05-23T18:58:20.138Z,13.35
2023-05-23T19:00:52.557Z,13.17
2023-05-23T19:03:22.138Z,13.18
2023-05-23T19:05:51.893Z,13.21
2023-05-23T19:08:21.491Z,13.26
2023-05-23T19:10:51.018Z,13.23
2023-05-23T19:13:20.767Z,13.12
2023-05-23T19:15:53.096Z,13.05
2023-05-23T19:18:23.349Z,13.10
2023-05-23T19:20:54.354Z,13.11
2023-05-23T19:23:24.003Z,12.92
2023-05-23T19:25:53.478Z,12.95
2023-05-23T19:28:22.952Z,13.01
2023-05-23T19:30:55.029Z,12.92
2023-05-23T19:33:24.894Z,12.75
2023-05-23T19:35:55.047Z,12.93
2023-05-23T19:38:24.521Z,12.95
2023-05-23T19:40:54.009Z,12.84
2023-05-23T19:43:23.519Z,12.77
2023-05-23T19:45:55.598Z,12.76
2023-05-23T19:48:25.179Z,12.78
2023-05-23T19:50:54.704Z,12.63
2023-05-23T19:53:24.629Z,12.77
2023-05-23T19:55:54.633Z,12.47
2023-05-23T19:58:24.115Z,12.36
2023-05-23T20:00:56.601Z,12.55
2023-05-23T20:03:26.129Z,12.46
2023-05-23T20:05:55.822Z,12.22
2023-05-23T20:08:25.388Z,12.38
2023-05-23T20:10:56.038Z,12.37
2023-05-23T20:13:25.530Z,12.31
2023-05-23T20:15:57.778Z,12.30
2023-05-23T20:18:27.879Z,12.36
2023-05-23T20:20:57.443Z,12.30
2023-05-23T20:23:28.680Z,12.37
2023-05-23T20:25:58.305Z,12.24
2023-05-23T20:28:27.860Z,12.28
2023-05-23T20:30:59.967Z,12.27
2023-05-23T20:33:29.525Z,12.26
2023-05-23T20:35:59.345Z,12.27
2023-05-23T20:38:29.104Z,12.18
2023-05-23T20:41:05.729Z,12.17
2023-05-23T20:43:37.572Z,12.15
2023-05-23T20:46:10.209Z,12.17
2023-05-23T20:48:39.777Z,11.81
2023-05-23T20:51:09.462Z,12.04
2023-05-23T20:53:39.234Z,11.97
2023-05-23T20:56:10.282Z,11.93
2023-05-23T20:58:40.199Z,11.93
2023-05-23T21:01:12.475Z,11.66
2023-05-23T21:03:42.297Z,11.84
2023-05-23T21:06:12.909Z,11.89
2023-05-23T21:08:42.574Z,11.95
2023-05-23T21:11:12.283Z,11.92
2023-05-23T21:13:41.790Z,11.24
2023-05-23T21:16:14.910Z,11.33
2023-05-23T21:18:44.486Z,11.78
2023-05-23T21:21:13.989Z,11.38
2023-05-23T21:23:43.488Z,11.56
2023-05-23T21:26:13.000Z,11.66
2023-05-23T21:28:42.522Z,11.68
2023-05-23T21:31:15.199Z,11.70
2023-05-23T21:33:44.757Z,11.72
2023-05-23T21:36:14.235Z,11.69
2023-05-23T21:38:43.726Z,11.70
2023-05-23T21:41:13.218Z,11.53
2023-05-23T21:43:43.252Z,11.57
2023-05-23T21:46:15.401Z,11.64
2023-05-23T21:48:44.881Z,11.55
2023-05-23T21:51:14.379Z,11.51
2023-05-23T21:53:43.856Z,11.46
2023-05-23T21:56:13.335Z,11.42
2023-05-23T21:58:42.827Z,11.44
2023-05-23T22:01:15.006Z,11.51
2023-05-23T22:03:44.955Z,11.39
2023-05-23T22:06:14.732Z,11.31
2023-05-23T22:08:46.324Z,11.31
2023-05-23T22:11:15.885Z,11.38
2023-05-23T22:13:45.465Z,11.39
2023-05-23T22:16:17.586Z,11.11
2023-05-23T22:18:52.039Z,11.25
2023-05-23T22:21:21.967Z,11.28
2023-05-23T22:23:52.177Z,11.12
2023-05-23T22:26:22.155Z,11.22
2023-05-23T22:28:53.665Z,11.20
2023-05-23T22:31:26.591Z,11.01
2023-05-23T22:33:56.220Z,11.14
2023-05-23T22:36:26.278Z,11.09
2023-05-23T22:38:56.264Z,11.12
2023-05-23T22:41:25.772Z,11.09
2023-05-23T22:43:55.349Z,10.95
2023-05-23T22:46:27.551Z,10.93
2023-05-23T22:48:58.201Z,11.03
2023-05-23T22:51:27.788Z,11.07
2023-05-23T22:53:57.303Z,10.98
2023-05-23T22:56:27.191Z,10.92
2023-05-23T22:58:56.733Z,10.98
2023-05-23T23:01:28.922Z,11.00
2023-05-23T23:03:58.428Z,10.91
2023-05-23T23:06:29.392Z,10.95
2023-05-23T23:08:58.926Z,10.89
2023-05-23T23:11:28.401Z,10.59
2023-05-23T23:13:57.875Z,10.67
2023-05-23T23:16:30.870Z,10.60
2023-05-23T23:19:00.489Z,10.64
2023-05-23T23:21:29.976Z,10.55
2023-05-23T23:23:59.882Z,10.52
2023-05-23T23:26:29.388Z,10.55
2023-05-23T23:28:58.882Z,10.60
2023-05-23T23:31:31.080Z,10.69
2023-05-23T23:34:00.775Z,10.68
2023-05-23T23:36:30.285Z,10.51
2023-05-23T23:38:59.854Z,10.55
2023-05-23T23:41:29.608Z,10.53
2023-05-23T23:43:59.103Z,10.43
2023-05-23T23:46:31.249Z,10.40
2023-05-23T23:49:00.826Z,10.19
2023-05-23T23:51:30.574Z,10.38
2023-05-23T23:54:00.086Z,10.44
2023-05-23T23:56:29.569Z,10.50
2023-05-23T23:58:59.070Z,10.47
